sensor_id;sensor_type;location;lat;lon;timestamp;P1;durP1;ratioP1;P2;durP2;ratioP2
74935;SDS011;63501;55.570;37.488;2024-03-08T00:00:37;2.97;;;1.75;;
74935;SDS011;63501;55.570;37.488;2024-03-08T00:03:05;1.75;;;1.45;;
74935;SDS011;63501;55.570;37.488;2024-03-08T00:05:33;2.20;;;1.75;;
74935;SDS011;63501;55.570;37.488;2024-03-08T00:08:00;1.70;;;1.60;;
74935;SDS011;63501;55.570;37.488;2024-03-08T00:10:27;2.80;;;1.60;;
74935;SDS011;63501;55.570;37.488;2024-03-08T00:12:56;1.95;;;1.58;;
74935;SDS011;63501;55.570;37.488;2024-03-08T00:15:24;3.33;;;1.65;;
74935;SDS011;63501;55.570;37.488;2024-03-08T00:17:51;3.05;;;1.70;;
74935;SDS011;63501;55.570;37.488;2024-03-08T00:20:19;2.28;;;1.80;;
74935;SDS011;63501;55.570;37.488;2024-03-08T00:22:46;1.92;;;1.73;;
74935;SDS011;63501;55.570;37.488;2024-03-08T00:25:13;1.35;;;1.23;;
74935;SDS011;63501;55.570;37.488;2024-03-08T00:27:42;1.90;;;1.50;;
74935;SDS011;63501;55.570;37.488;2024-03-08T00:32:39;3.63;;;2.08;;
74935;SDS011;63501;55.570;37.488;2024-03-08T00:35:07;3.60;;;1.70;;
74935;SDS011;63501;55.570;37.488;2024-03-08T00:37:34;1.75;;;1.40;;
74935;SDS011;63501;55.570;37.488;2024-03-08T00:40:02;1.77;;;1.42;;
74935;SDS011;63501;55.570;37.488;2024-03-08T00:42:30;2.28;;;1.70;;
74935;SDS011;63501;55.570;37.488;2024-03-08T00:44:58;1.95;;;1.70;;
74935;SDS011;63501;55.570;37.488;2024-03-08T00:47:27;2.42;;;1.60;;
74935;SDS011;63501;55.570;37.488;2024-03-08T00:49:54;2.05;;;1.73;;
74935;SDS011;63501;55.570;37.488;2024-03-08T00:52:22;2.63;;;1.58;;
74935;SDS011;63501;55.570;37.488;2024-03-08T00:54:49;2.40;;;1.55;;
74935;SDS011;63501;55.570;37.488;2024-03-08T00:57:17;2.22;;;1.67;;
74935;SDS011;63501;55.570;37.488;2024-03-08T00:59:44;2.15;;;1.98;;
74935;SDS011;63501;55.570;37.488;2024-03-08T01:02:12;2.40;;;1.58;;
74935;SDS011;63501;55.570;37.488;2024-03-08T01:04:41;1.75;;;1.60;;
74935;SDS011;63501;55.570;37.488;2024-03-08T01:07:08;1.58;;;1.48;;
74935;SDS011;63501;55.570;37.488;2024-03-08T01:12:02;1.73;;;1.60;;
74935;SDS011;63501;55.570;37.488;2024-03-08T01:14:33;1.85;;;1.58;;
74935;SDS011;63501;55.570;37.488;2024-03-08T01:19:27;1.55;;;1.38;;
74935;SDS011;63501;55.570;37.488;2024-03-08T01:21:55;2.65;;;1.63;;
74935;SDS011;63501;55.570;37.488;2024-03-08T01:24:22;2.22;;;1.52;;
74935;SDS011;63501;55.570;37.488;2024-03-08T01:26:50;2.22;;;1.40;;
74935;SDS011;63501;55.570;37.488;2024-03-08T01:29:17;2.00;;;1.73;;
74935;SDS011;63501;55.570;37.488;2024-03-08T01:31:44;2.13;;;1.92;;
74935;SDS011;63501;55.570;37.488;2024-03-08T01:34:12;1.90;;;1.50;;
74935;SDS011;63501;55.570;37.488;2024-03-08T01:36:39;1.98;;;1.60;;
74935;SDS011;63501;55.570;37.488;2024-03-08T01:39:07;2.35;;;1.50;;
74935;SDS011;63501;55.570;37.488;2024-03-08T01:41:36;2.05;;;1.50;;
74935;SDS011;63501;55.570;37.488;2024-03-08T01:44:03;3.53;;;1.73;;
74935;SDS011;63501;55.570;37.488;2024-03-08T01:46:32;2.13;;;1.92;;
74935;SDS011;63501;55.570;37.488;2024-03-08T01:49:01;2.70;;;1.98;;
74935;SDS011;63501;55.570;37.488;2024-03-08T01:51:29;1.90;;;1.65;;
74935;SDS011;63501;55.570;37.488;2024-03-08T01:53:57;2.50;;;1.90;;
74935;SDS011;63501;55.570;37.488;2024-03-08T01:56:30;4.13;;;1.85;;
74935;SDS011;63501;55.570;37.488;2024-03-08T01:58:57;2.30;;;1.90;;
74935;SDS011;63501;55.570;37.488;2024-03-08T02:01:26;3.05;;;1.92;;
74935;SDS011;63501;55.570;37.488;2024-03-08T02:03:54;1.60;;;1.50;;
74935;SDS011;63501;55.570;37.488;2024-03-08T02:06:21;2.92;;;1.67;;
74935;SDS011;63501;55.570;37.488;2024-03-08T02:11:15;1.77;;;1.48;;
74935;SDS011;63501;55.570;37.488;2024-03-08T02:13:45;2.92;;;1.80;;
74935;SDS011;63501;55.570;37.488;2024-03-08T02:16:13;2.25;;;1.67;;
74935;SDS011;63501;55.570;37.488;2024-03-08T02:18:47;2.17;;;1.85;;
74935;SDS011;63501;55.570;37.488;2024-03-08T02:21:16;2.28;;;1.88;;
74935;SDS011;63501;55.570;37.488;2024-03-08T02:23:44;1.98;;;1.65;;
74935;SDS011;63501;55.570;37.488;2024-03-08T02:28:39;2.13;;;1.48;;
74935;SDS011;63501;55.570;37.488;2024-03-08T02:31:08;4.20;;;2.17;;
74935;SDS011;63501;55.570;37.488;2024-03-08T02:33:36;2.72;;;1.73;;
74935;SDS011;63501;55.570;37.488;2024-03-08T02:36:02;2.22;;;1.88;;
74935;SDS011;63501;55.570;37.488;2024-03-08T02:38:31;2.17;;;1.98;;
74935;SDS011;63501;55.570;37.488;2024-03-08T02:40:58;3.05;;;1.40;;
74935;SDS011;63501;55.570;37.488;2024-03-08T02:43:25;2.95;;;1.70;;
74935;SDS011;63501;55.570;37.488;2024-03-08T02:45:53;2.63;;;1.73;;
74935;SDS011;63501;55.570;37.488;2024-03-08T02:48:19;2.60;;;1.52;;
74935;SDS011;63501;55.570;37.488;2024-03-08T02:50:47;2.63;;;1.40;;
74935;SDS011;63501;55.570;37.488;2024-03-08T02:53:16;1.75;;;1.65;;
74935;SDS011;63501;55.570;37.488;2024-03-08T02:55:45;3.22;;;1.60;;
74935;SDS011;63501;55.570;37.488;2024-03-08T02:58:13;1.85;;;1.55;;
74935;SDS011;63501;55.570;37.488;2024-03-08T03:00:40;3.20;;;1.60;;
74935;SDS011;63501;55.570;37.488;2024-03-08T03:03:09;1.50;;;1.30;;
74935;SDS011;63501;55.570;37.488;2024-03-08T03:05:36;2.30;;;1.48;;
74935;SDS011;63501;55.570;37.488;2024-03-08T03:08:06;2.20;;;1.65;;
74935;SDS011;63501;55.570;37.488;2024-03-08T03:10:34;2.92;;;2.10;;
74935;SDS011;63501;55.570;37.488;2024-03-08T03:15:31;1.70;;;1.55;;
74935;SDS011;63501;55.570;37.488;2024-03-08T03:17:59;2.35;;;1.48;;
74935;SDS011;63501;55.570;37.488;2024-03-08T03:20:27;3.55;;;1.73;;
74935;SDS011;63501;55.570;37.488;2024-03-08T03:22:58;1.50;;;1.40;;
74935;SDS011;63501;55.570;37.488;2024-03-08T03:25:27;1.83;;;1.63;;
74935;SDS011;63501;55.570;37.488;2024-03-08T03:27:59;2.25;;;1.55;;
74935;SDS011;63501;55.570;37.488;2024-03-08T03:32:58;1.98;;;1.75;;
74935;SDS011;63501;55.570;37.488;2024-03-08T03:35:26;2.50;;;1.88;;
74935;SDS011;63501;55.570;37.488;2024-03-08T03:37:54;2.47;;;1.90;;
74935;SDS011;63501;55.570;37.488;2024-03-08T03:40:32;2.38;;;1.80;;
74935;SDS011;63501;55.570;37.488;2024-03-08T03:45:29;2.22;;;1.70;;
74935;SDS011;63501;55.570;37.488;2024-03-08T03:48:01;1.70;;;1.60;;
74935;SDS011;63501;55.570;37.488;2024-03-08T03:50:29;1.83;;;1.35;;
74935;SDS011;63501;55.570;37.488;2024-03-08T03:52:59;1.70;;;1.60;;
74935;SDS011;63501;55.570;37.488;2024-03-08T03:55:27;2.78;;;1.77;;
74935;SDS011;63501;55.570;37.488;2024-03-08T03:57:55;2.30;;;1.73;;
74935;SDS011;63501;55.570;37.488;2024-03-08T04:00:24;1.95;;;1.70;;
74935;SDS011;63501;55.570;37.488;2024-03-08T04:02:53;2.38;;;2.00;;
74935;SDS011;63501;55.570;37.488;2024-03-08T04:05:24;2.25;;;1.73;;
74935;SDS011;63501;55.570;37.488;2024-03-08T04:07:52;1.80;;;1.70;;
74935;SDS011;63501;55.570;37.488;2024-03-08T04:10:20;2.40;;;1.73;;
74935;SDS011;63501;55.570;37.488;2024-03-08T04:12:47;1.80;;;1.70;;
74935;SDS011;63501;55.570;37.488;2024-03-08T04:15:14;2.30;;;1.85;;
74935;SDS011;63501;55.570;37.488;2024-03-08T04:17:42;2.00;;;1.90;;
74935;SDS011;63501;55.570;37.488;2024-03-08T04:20:12;2.30;;;2.00;;
74935;SDS011;63501;55.570;37.488;2024-03-08T04:22:39;1.90;;;1.70;;
74935;SDS011;63501;55.570;37.488;2024-03-08T04:25:07;2.13;;;1.90;;
74935;SDS011;63501;55.570;37.488;2024-03-08T04:27:35;2.75;;;2.28;;
74935;SDS011;63501;55.570;37.488;2024-03-08T04:30:02;2.03;;;1.80;;
74935;SDS011;63501;55.570;37.488;2024-03-08T04:32:32;2.60;;;1.80;;
74935;SDS011;63501;55.570;37.488;2024-03-08T04:35:00;2.72;;;2.05;;
74935;SDS011;63501;55.570;37.488;2024-03-08T04:37:31;2.50;;;1.88;;
74935;SDS011;63501;55.570;37.488;2024-03-08T04:39:58;2.63;;;1.98;;
74935;SDS011;63501;55.570;37.488;2024-03-08T04:42:25;1.65;;;1.55;;
74935;SDS011;63501;55.570;37.488;2024-03-08T04:44:54;2.08;;;1.88;;
74935;SDS011;63501;55.570;37.488;2024-03-08T04:47:21;1.90;;;1.50;;
74935;SDS011;63501;55.570;37.488;2024-03-08T04:49:48;2.72;;;1.70;;
74935;SDS011;63501;55.570;37.488;2024-03-08T04:52:16;2.75;;;1.85;;
74935;SDS011;63501;55.570;37.488;2024-03-08T04:54:44;1.70;;;1.60;;
74935;SDS011;63501;55.570;37.488;2024-03-08T04:57:12;2.00;;;1.77;;
74935;SDS011;63501;55.570;37.488;2024-03-08T04:59:39;2.47;;;2.28;;
74935;SDS011;63501;55.570;37.488;2024-03-08T05:02:06;2.33;;;2.13;;
74935;SDS011;63501;55.570;37.488;2024-03-08T05:04:33;2.05;;;1.85;;
74935;SDS011;63501;55.570;37.488;2024-03-08T05:09:28;2.00;;;1.67;;
74935;SDS011;63501;55.570;37.488;2024-03-08T05:11:58;1.80;;;1.63;;
74935;SDS011;63501;55.570;37.488;2024-03-08T05:14:26;2.15;;;1.95;;
74935;SDS011;63501;55.570;37.488;2024-03-08T05:16:56;2.83;;;2.05;;
74935;SDS011;63501;55.570;37.488;2024-03-08T05:19:23;2.67;;;2.47;;
74935;SDS011;63501;55.570;37.488;2024-03-08T05:21:50;2.17;;;1.98;;
74935;SDS011;63501;55.570;37.488;2024-03-08T05:24:18;1.95;;;1.80;;
74935;SDS011;63501;55.570;37.488;2024-03-08T05:26:45;2.15;;;1.92;;
74935;SDS011;63501;55.570;37.488;2024-03-08T05:29:14;2.83;;;1.90;;
74935;SDS011;63501;55.570;37.488;2024-03-08T05:31:45;2.05;;;1.85;;
74935;SDS011;63501;55.570;37.488;2024-03-08T05:34:13;2.10;;;1.90;;
74935;SDS011;63501;55.570;37.488;2024-03-08T05:36:45;2.47;;;1.92;;
74935;SDS011;63501;55.570;37.488;2024-03-08T05:39:15;2.33;;;1.98;;
74935;SDS011;63501;55.570;37.488;2024-03-08T05:41:45;2.20;;;2.00;;
74935;SDS011;63501;55.570;37.488;2024-03-08T05:44:12;2.05;;;1.70;;
74935;SDS011;63501;55.570;37.488;2024-03-08T05:46:41;2.38;;;1.90;;
74935;SDS011;63501;55.570;37.488;2024-03-08T05:49:27;2.28;;;2.00;;
74935;SDS011;63501;55.570;37.488;2024-03-08T05:51:54;2.08;;;1.88;;
74935;SDS011;63501;55.570;37.488;2024-03-08T05:54:21;1.88;;;1.60;;
74935;SDS011;63501;55.570;37.488;2024-03-08T05:56:49;2.97;;;1.98;;
74935;SDS011;63501;55.570;37.488;2024-03-08T05:59:18;2.45;;;1.88;;
74935;SDS011;63501;55.570;37.488;2024-03-08T06:01:47;2.67;;;1.67;;
74935;SDS011;63501;55.570;37.488;2024-03-08T06:04:14;2.13;;;1.92;;
74935;SDS011;63501;55.570;37.488;2024-03-08T06:06:43;2.35;;;1.92;;
74935;SDS011;63501;55.570;37.488;2024-03-08T06:09:10;2.30;;;1.95;;
74935;SDS011;63501;55.570;37.488;2024-03-08T06:11:42;2.22;;;2.00;;
74935;SDS011;63501;55.570;37.488;2024-03-08T06:14:09;2.25;;;1.77;;
74935;SDS011;63501;55.570;37.488;2024-03-08T06:16:36;3.05;;;2.30;;
74935;SDS011;63501;55.570;37.488;2024-03-08T06:19:05;2.30;;;1.85;;
74935;SDS011;63501;55.570;37.488;2024-03-08T06:21:33;2.40;;;2.00;;
74935;SDS011;63501;55.570;37.488;2024-03-08T06:26:27;2.55;;;2.13;;
74935;SDS011;63501;55.570;37.488;2024-03-08T06:28:55;2.40;;;1.75;;
74935;SDS011;63501;55.570;37.488;2024-03-08T06:31:22;2.75;;;2.28;;
74935;SDS011;63501;55.570;37.488;2024-03-08T06:36:18;2.80;;;1.75;;
74935;SDS011;63501;55.570;37.488;2024-03-08T06:38:47;2.47;;;1.92;;
74935;SDS011;63501;55.570;37.488;2024-03-08T06:41:14;3.05;;;2.75;;
74935;SDS011;63501;55.570;37.488;2024-03-08T06:43:41;2.63;;;2.25;;
74935;SDS011;63501;55.570;37.488;2024-03-08T06:46:09;2.22;;;1.88;;
74935;SDS011;63501;55.570;37.488;2024-03-08T06:48:38;2.70;;;2.38;;
74935;SDS011;63501;55.570;37.488;2024-03-08T06:51:06;3.70;;;1.88;;
74935;SDS011;63501;55.570;37.488;2024-03-08T06:56:02;2.97;;;1.98;;
74935;SDS011;63501;55.570;37.488;2024-03-08T06:58:30;2.40;;;2.17;;
74935;SDS011;63501;55.570;37.488;2024-03-08T07:00:58;2.47;;;1.90;;
74935;SDS011;63501;55.570;37.488;2024-03-08T07:03:25;2.33;;;2.00;;
74935;SDS011;63501;55.570;37.488;2024-03-08T07:05:56;2.58;;;1.95;;
74935;SDS011;63501;55.570;37.488;2024-03-08T07:08:25;3.17;;;2.30;;
74935;SDS011;63501;55.570;37.488;2024-03-08T07:10:54;2.42;;;2.22;;
74935;SDS011;63501;55.570;37.488;2024-03-08T07:13:23;3.10;;;2.20;;
74935;SDS011;63501;55.570;37.488;2024-03-08T07:15:50;2.40;;;2.05;;
74935;SDS011;63501;55.570;37.488;2024-03-08T07:18:18;2.97;;;2.33;;
74935;SDS011;63501;55.570;37.488;2024-03-08T07:20:45;2.58;;;2.08;;
74935;SDS011;63501;55.570;37.488;2024-03-08T07:23:12;2.60;;;2.30;;
74935;SDS011;63501;55.570;37.488;2024-03-08T07:26:01;2.65;;;2.17;;
74935;SDS011;63501;55.570;37.488;2024-03-08T07:28:28;3.65;;;2.20;;
74935;SDS011;63501;55.570;37.488;2024-03-08T07:33:35;3.92;;;2.63;;
74935;SDS011;63501;55.570;37.488;2024-03-08T07:36:03;2.90;;;2.30;;
74935;SDS011;63501;55.570;37.488;2024-03-08T07:38:31;2.88;;;2.58;;
74935;SDS011;63501;55.570;37.488;2024-03-08T07:40:58;1.95;;;1.75;;
74935;SDS011;63501;55.570;37.488;2024-03-08T07:43:27;2.83;;;2.30;;
74935;SDS011;63501;55.570;37.488;2024-03-08T07:45:55;2.85;;;2.30;;
74935;SDS011;63501;55.570;37.488;2024-03-08T07:50:49;2.42;;;2.10;;
74935;SDS011;63501;55.570;37.488;2024-03-08T07:53:17;2.70;;;2.25;;
74935;SDS011;63501;55.570;37.488;2024-03-08T07:55:44;2.90;;;2.50;;
74935;SDS011;63501;55.570;37.488;2024-03-08T07:58:11;2.88;;;2.40;;
74935;SDS011;63501;55.570;37.488;2024-03-08T08:00:40;2.55;;;2.20;;
74935;SDS011;63501;55.570;37.488;2024-03-08T08:03:08;2.88;;;2.50;;
74935;SDS011;63501;55.570;37.488;2024-03-08T08:05:36;3.65;;;2.53;;
74935;SDS011;63501;55.570;37.488;2024-03-08T08:08:05;2.35;;;2.15;;
74935;SDS011;63501;55.570;37.488;2024-03-08T08:10:36;2.90;;;2.45;;
74935;SDS011;63501;55.570;37.488;2024-03-08T08:13:03;4.22;;;2.20;;
74935;SDS011;63501;55.570;37.488;2024-03-08T08:15:31;4.30;;;2.47;;
74935;SDS011;63501;55.570;37.488;2024-03-08T08:18:01;2.45;;;2.10;;
74935;SDS011;63501;55.570;37.488;2024-03-08T08:20:30;2.78;;;2.47;;
74935;SDS011;63501;55.570;37.488;2024-03-08T08:22:58;2.60;;;2.35;;
74935;SDS011;63501;55.570;37.488;2024-03-08T08:25:25;2.85;;;2.45;;
74935;SDS011;63501;55.570;37.488;2024-03-08T08:27:52;2.55;;;2.20;;
74935;SDS011;63501;55.570;37.488;2024-03-08T08:32:47;2.55;;;2.22;;
74935;SDS011;63501;55.570;37.488;2024-03-08T08:35:16;2.90;;;2.53;;
74935;SDS011;63501;55.570;37.488;2024-03-08T08:37:45;3.33;;;2.60;;
74935;SDS011;63501;55.570;37.488;2024-03-08T08:40:14;3.13;;;2.40;;
74935;SDS011;63501;55.570;37.488;2024-03-08T08:42:44;3.10;;;2.33;;
74935;SDS011;63501;55.570;37.488;2024-03-08T08:45:12;2.53;;;2.17;;
74935;SDS011;63501;55.570;37.488;2024-03-08T08:47:39;3.65;;;2.53;;
74935;SDS011;63501;55.570;37.488;2024-03-08T08:50:08;3.75;;;2.75;;
74935;SDS011;63501;55.570;37.488;2024-03-08T08:52:38;2.88;;;2.35;;
74935;SDS011;63501;55.570;37.488;2024-03-08T08:55:06;3.33;;;2.15;;
74935;SDS011;63501;55.570;37.488;2024-03-08T08:57:33;2.80;;;2.40;;
74935;SDS011;63501;55.570;37.488;2024-03-08T09:00:01;3.58;;;2.70;;
74935;SDS011;63501;55.570;37.488;2024-03-08T09:02:32;3.80;;;2.63;;
74935;SDS011;63501;55.570;37.488;2024-03-08T09:05:00;2.42;;;2.22;;
74935;SDS011;63501;55.570;37.488;2024-03-08T09:07:29;2.40;;;2.20;;
74935;SDS011;63501;55.570;37.488;2024-03-08T09:09:58;2.72;;;2.50;;
74935;SDS011;63501;55.570;37.488;2024-03-08T09:12:25;2.70;;;2.50;;
74935;SDS011;63501;55.570;37.488;2024-03-08T09:14:53;2.60;;;2.40;;
74935;SDS011;63501;55.570;37.488;2024-03-08T09:17:20;2.90;;;2.45;;
74935;SDS011;63501;55.570;37.488;2024-03-08T09:19:47;3.22;;;2.42;;
74935;SDS011;63501;55.570;37.488;2024-03-08T09:22:15;3.08;;;2.60;;
74935;SDS011;63501;55.570;37.488;2024-03-08T09:24:43;2.63;;;2.42;;
74935;SDS011;63501;55.570;37.488;2024-03-08T09:27:12;3.50;;;2.60;;
74935;SDS011;63501;55.570;37.488;2024-03-08T09:29:39;3.22;;;2.67;;
74935;SDS011;63501;55.570;37.488;2024-03-08T09:34:53;3.10;;;2.38;;
74935;SDS011;63501;55.570;37.488;2024-03-08T09:37:21;3.05;;;2.50;;
74935;SDS011;63501;55.570;37.488;2024-03-08T09:39:49;3.13;;;2.70;;
74935;SDS011;63501;55.570;37.488;2024-03-08T09:42:17;3.33;;;2.80;;
74935;SDS011;63501;55.570;37.488;2024-03-08T09:44:45;2.92;;;2.38;;
74935;SDS011;63501;55.570;37.488;2024-03-08T09:47:13;2.83;;;2.53;;
74935;SDS011;63501;55.570;37.488;2024-03-08T09:49:41;2.95;;;2.65;;
74935;SDS011;63501;55.570;37.488;2024-03-08T09:52:09;3.17;;;2.88;;
74935;SDS011;63501;55.570;37.488;2024-03-08T09:54:38;4.65;;;2.20;;
74935;SDS011;63501;55.570;37.488;2024-03-08T09:57:08;3.63;;;2.90;;
74935;SDS011;63501;55.570;37.488;2024-03-08T09:59:38;2.92;;;2.63;;
74935;SDS011;63501;55.570;37.488;2024-03-08T10:02:14;3.95;;;3.00;;
74935;SDS011;63501;55.570;37.488;2024-03-08T10:04:45;3.40;;;2.70;;
74935;SDS011;63501;55.570;37.488;2024-03-08T10:07:19;2.88;;;2.60;;
74935;SDS011;63501;55.570;37.488;2024-03-08T10:09:47;2.97;;;2.67;;
74935;SDS011;63501;55.570;37.488;2024-03-08T10:12:16;3.42;;;3.13;;
74935;SDS011;63501;55.570;37.488;2024-03-08T10:14:49;4.15;;;3.20;;
74935;SDS011;63501;55.570;37.488;2024-03-08T10:17:19;4.43;;;3.53;;
74935;SDS011;63501;55.570;37.488;2024-03-08T10:19:50;3.55;;;3.25;;
74935;SDS011;63501;55.570;37.488;2024-03-08T10:22:18;4.22;;;3.25;;
74935;SDS011;63501;55.570;37.488;2024-03-08T10:24:47;3.42;;;2.90;;
74935;SDS011;63501;55.570;37.488;2024-03-08T10:27:16;3.90;;;3.10;;
74935;SDS011;63501;55.570;37.488;2024-03-08T10:29:46;4.75;;;3.38;;
74935;SDS011;63501;55.570;37.488;2024-03-08T10:32:20;5.28;;;3.03;;
74935;SDS011;63501;55.570;37.488;2024-03-08T10:34:47;3.80;;;2.83;;
74935;SDS011;63501;55.570;37.488;2024-03-08T10:37:15;3.90;;;3.20;;
74935;SDS011;63501;55.570;37.488;2024-03-08T10:39:52;3.25;;;2.90;;
74935;SDS011;63501;55.570;37.488;2024-03-08T10:42:36;4.47;;;3.13;;
74935;SDS011;63501;55.570;37.488;2024-03-08T10:45:12;4.60;;;3.10;;
74935;SDS011;63501;55.570;37.488;2024-03-08T10:47:49;4.18;;;3.30;;
74935;SDS011;63501;55.570;37.488;2024-03-08T10:50:25;4.25;;;3.35;;
74935;SDS011;63501;55.570;37.488;2024-03-08T10:53:01;3.85;;;2.80;;
74935;SDS011;63501;55.570;37.488;2024-03-08T10:55:32;5.50;;;3.08;;
74935;SDS011;63501;55.570;37.488;2024-03-08T10:58:01;3.70;;;3.08;;
74935;SDS011;63501;55.570;37.488;2024-03-08T11:00:30;3.92;;;3.53;;
74935;SDS011;63501;55.570;37.488;2024-03-08T11:02:58;4.63;;;3.50;;
74935;SDS011;63501;55.570;37.488;2024-03-08T11:08:06;3.85;;;3.05;;
74935;SDS011;63501;55.570;37.488;2024-03-08T11:10:48;4.78;;;3.63;;
74935;SDS011;63501;55.570;37.488;2024-03-08T11:13:33;4.30;;;3.20;;
74935;SDS011;63501;55.570;37.488;2024-03-08T11:16:05;4.50;;;3.38;;
74935;SDS011;63501;55.570;37.488;2024-03-08T11:18:36;4.28;;;3.25;;
74935;SDS011;63501;55.570;37.488;2024-03-08T11:21:07;4.07;;;3.60;;
74935;SDS011;63501;55.570;37.488;2024-03-08T11:23:38;3.83;;;3.20;;
74935;SDS011;63501;55.570;37.488;2024-03-08T11:26:16;3.75;;;2.90;;
74935;SDS011;63501;55.570;37.488;2024-03-08T11:28:45;3.95;;;3.10;;
74935;SDS011;63501;55.570;37.488;2024-03-08T11:31:24;4.30;;;2.97;;
74935;SDS011;63501;55.570;37.488;2024-03-08T11:33:52;5.22;;;3.28;;
74935;SDS011;63501;55.570;37.488;2024-03-08T11:36:20;4.30;;;3.10;;
74935;SDS011;63501;55.570;37.488;2024-03-08T11:38:49;4.38;;;2.90;;
74935;SDS011;63501;55.570;37.488;2024-03-08T11:41:18;3.92;;;3.25;;
74935;SDS011;63501;55.570;37.488;2024-03-08T11:43:47;3.78;;;3.38;;
74935;SDS011;63501;55.570;37.488;2024-03-08T11:46:15;4.55;;;3.88;;
74935;SDS011;63501;55.570;37.488;2024-03-08T11:48:48;5.32;;;3.30;;
74935;SDS011;63501;55.570;37.488;2024-03-08T11:51:15;3.88;;;3.38;;
74935;SDS011;63501;55.570;37.488;2024-03-08T11:53:44;4.00;;;3.38;;
74935;SDS011;63501;55.570;37.488;2024-03-08T11:56:12;3.92;;;3.10;;
74935;SDS011;63501;55.570;37.488;2024-03-08T11:58:41;4.38;;;3.50;;
74935;SDS011;63501;55.570;37.488;2024-03-08T12:01:09;4.80;;;3.15;;
74935;SDS011;63501;55.570;37.488;2024-03-08T12:03:38;5.13;;;3.45;;
74935;SDS011;63501;55.570;37.488;2024-03-08T12:06:10;3.72;;;3.30;;
74935;SDS011;63501;55.570;37.488;2024-03-08T12:08:40;3.80;;;3.20;;
74935;SDS011;63501;55.570;37.488;2024-03-08T12:11:08;4.35;;;3.40;;
74935;SDS011;63501;55.570;37.488;2024-03-08T12:13:35;3.97;;;3.33;;
74935;SDS011;63501;55.570;37.488;2024-03-08T12:16:03;3.80;;;3.35;;
74935;SDS011;63501;55.570;37.488;2024-03-08T12:18:32;5.05;;;3.53;;
74935;SDS011;63501;55.570;37.488;2024-03-08T12:21:04;5.05;;;3.35;;
74935;SDS011;63501;55.570;37.488;2024-03-08T12:23:34;4.50;;;3.25;;
74935;SDS011;63501;55.570;37.488;2024-03-08T12:26:11;3.72;;;3.08;;
74935;SDS011;63501;55.570;37.488;2024-03-08T12:28:39;4.38;;;3.50;;
74935;SDS011;63501;55.570;37.488;2024-03-08T12:31:07;4.18;;;3.83;;
74935;SDS011;63501;55.570;37.488;2024-03-08T12:33:37;4.93;;;3.40;;
74935;SDS011;63501;55.570;37.488;2024-03-08T12:36:04;4.38;;;3.15;;
74935;SDS011;63501;55.570;37.488;2024-03-08T12:38:34;4.63;;;3.15;;
74935;SDS011;63501;55.570;37.488;2024-03-08T12:41:03;5.05;;;3.33;;
74935;SDS011;63501;55.570;37.488;2024-03-08T12:45:59;3.78;;;3.13;;
74935;SDS011;63501;55.570;37.488;2024-03-08T12:48:26;4.38;;;2.92;;
74935;SDS011;63501;55.570;37.488;2024-03-08T12:50:54;3.60;;;3.15;;
74935;SDS011;63501;55.570;37.488;2024-03-08T12:53:21;3.85;;;3.30;;
74935;SDS011;63501;55.570;37.488;2024-03-08T12:55:52;4.03;;;3.08;;
74935;SDS011;63501;55.570;37.488;2024-03-08T12:58:21;4.03;;;3.20;;
74935;SDS011;63501;55.570;37.488;2024-03-08T13:00:49;4.55;;;3.30;;
74935;SDS011;63501;55.570;37.488;2024-03-08T13:03:17;4.55;;;3.00;;
74935;SDS011;63501;55.570;37.488;2024-03-08T13:05:44;5.10;;;3.63;;
74935;SDS011;63501;55.570;37.488;2024-03-08T13:08:13;3.75;;;2.80;;
74935;SDS011;63501;55.570;37.488;2024-03-08T13:10:41;4.22;;;3.10;;
74935;SDS011;63501;55.570;37.488;2024-03-08T13:13:11;4.25;;;3.20;;
74935;SDS011;63501;55.570;37.488;2024-03-08T13:15:42;3.13;;;2.65;;
74935;SDS011;63501;55.570;37.488;2024-03-08T13:18:09;3.45;;;3.00;;
74935;SDS011;63501;55.570;37.488;2024-03-08T13:20:37;3.67;;;3.13;;
74935;SDS011;63501;55.570;37.488;2024-03-08T13:23:04;3.40;;;2.90;;
74935;SDS011;63501;55.570;37.488;2024-03-08T13:25:33;4.45;;;3.17;;
74935;SDS011;63501;55.570;37.488;2024-03-08T13:28:04;3.90;;;2.90;;
74935;SDS011;63501;55.570;37.488;2024-03-08T13:30:33;3.45;;;2.80;;
74935;SDS011;63501;55.570;37.488;2024-03-08T13:33:00;4.25;;;3.17;;
74935;SDS011;63501;55.570;37.488;2024-03-08T13:35:30;3.58;;;3.10;;
74935;SDS011;63501;55.570;37.488;2024-03-08T13:37:57;2.83;;;2.50;;
74935;SDS011;63501;55.570;37.488;2024-03-08T13:40:25;4.22;;;3.10;;
74935;SDS011;63501;55.570;37.488;2024-03-08T13:42:52;3.97;;;3.08;;
74935;SDS011;63501;55.570;37.488;2024-03-08T13:45:20;3.42;;;3.08;;
74935;SDS011;63501;55.570;37.488;2024-03-08T13:47:50;3.97;;;2.80;;
74935;SDS011;63501;55.570;37.488;2024-03-08T13:50:17;3.25;;;2.95;;
74935;SDS011;63501;55.570;37.488;2024-03-08T13:52:46;3.38;;;2.88;;
74935;SDS011;63501;55.570;37.488;2024-03-08T13:55:16;3.40;;;3.08;;
74935;SDS011;63501;55.570;37.488;2024-03-08T13:57:44;3.92;;;3.10;;
74935;SDS011;63501;55.570;37.488;2024-03-08T14:00:12;3.53;;;2.85;;
74935;SDS011;63501;55.570;37.488;2024-03-08T14:02:41;4.63;;;2.88;;
74935;SDS011;63501;55.570;37.488;2024-03-08T14:05:10;5.07;;;3.42;;
74935;SDS011;63501;55.570;37.488;2024-03-08T14:07:41;3.08;;;2.78;;
74935;SDS011;63501;55.570;37.488;2024-03-08T14:10:08;3.58;;;3.20;;
74935;SDS011;63501;55.570;37.488;2024-03-08T14:12:38;3.47;;;3.05;;
74935;SDS011;63501;55.570;37.488;2024-03-08T14:15:05;3.50;;;2.92;;
74935;SDS011;63501;55.570;37.488;2024-03-08T14:17:34;3.53;;;2.78;;
74935;SDS011;63501;55.570;37.488;2024-03-08T14:22:30;3.00;;;2.70;;
74935;SDS011;63501;55.570;37.488;2024-03-08T14:24:57;3.83;;;3.17;;
74935;SDS011;63501;55.570;37.488;2024-03-08T14:27:25;3.85;;;2.83;;
74935;SDS011;63501;55.570;37.488;2024-03-08T14:32:20;3.85;;;3.05;;
74935;SDS011;63501;55.570;37.488;2024-03-08T14:34:50;3.85;;;2.85;;
74935;SDS011;63501;55.570;37.488;2024-03-08T14:37:17;3.72;;;3.05;;
74935;SDS011;63501;55.570;37.488;2024-03-08T14:39:50;3.30;;;3.00;;
74935;SDS011;63501;55.570;37.488;2024-03-08T14:45:03;4.25;;;2.90;;
74935;SDS011;63501;55.570;37.488;2024-03-08T14:47:32;3.30;;;2.58;;
74935;SDS011;63501;55.570;37.488;2024-03-08T14:49:59;3.53;;;2.92;;
74935;SDS011;63501;55.570;37.488;2024-03-08T14:54:55;3.20;;;2.65;;
74935;SDS011;63501;55.570;37.488;2024-03-08T14:57:23;3.70;;;2.65;;
74935;SDS011;63501;55.570;37.488;2024-03-08T14:59:50;3.95;;;3.20;;
74935;SDS011;63501;55.570;37.488;2024-03-08T15:02:18;4.15;;;2.67;;
74935;SDS011;63501;55.570;37.488;2024-03-08T15:04:46;2.95;;;2.72;;
74935;SDS011;63501;55.570;37.488;2024-03-08T15:07:23;3.63;;;3.00;;
74935;SDS011;63501;55.570;37.488;2024-03-08T15:09:51;3.85;;;3.00;;
74935;SDS011;63501;55.570;37.488;2024-03-08T15:12:19;4.50;;;3.25;;
74935;SDS011;63501;55.570;37.488;2024-03-08T15:14:47;2.95;;;2.60;;
74935;SDS011;63501;55.570;37.488;2024-03-08T15:17:18;3.15;;;2.85;;
74935;SDS011;63501;55.570;37.488;2024-03-08T15:19:47;5.50;;;2.83;;
74935;SDS011;63501;55.570;37.488;2024-03-08T15:22:14;4.93;;;3.03;;
74935;SDS011;63501;55.570;37.488;2024-03-08T15:24:43;3.95;;;2.85;;
74935;SDS011;63501;55.570;37.488;2024-03-08T15:29:39;4.30;;;3.10;;
74935;SDS011;63501;55.570;37.488;2024-03-08T15:32:08;3.97;;;2.90;;
74935;SDS011;63501;55.570;37.488;2024-03-08T15:34:42;3.58;;;3.03;;
74935;SDS011;63501;55.570;37.488;2024-03-08T15:37:09;4.22;;;2.60;;
74935;SDS011;63501;55.570;37.488;2024-03-08T15:39:40;3.75;;;2.90;;